Time;durP1;ratioP1;P1;durP2;ratioP2;P2;SDS_P1;SDS_P2;PMS_P1;PMS_P2;Temp;Humidity;BMP_temperature;BMP_pressure;BME280_temperature;BME280_humidity;BME280_pressure;Samples;Min_cycle;Max_cycle;Signal;HPM_P1;HPM_P2
2023/12/04 00:06:37;;;;;;;21.40;16.10;;;;;;;-3.93;100.00;99914.42;438662;1257;139922;-76
2023/12/04 00:16:43;;;;;;;20.30;15.40;;;;;;;-3.88;100.00;99925.04;438488;1257;139796;-77
2023/12/04 00:26:49;;;;;;;19.60;14.30;;;;;;;-3.92;100.00;99922.98;438569;1257;140023;-76
2023/12/04 00:36:55;;;;;;;16.90;13.70;;;;;;;-3.94;100.00;99938.02;438758;1258;139836;-76
2023/12/04 00:47:02;;;;;;;20.80;13.80;;;;;;;-3.96;100.00;99951.71;438456;1257;139475;-77
2023/12/04 00:57:08;;;;;;;17.70;13.70;;;;;;;-4.06;100.00;99958.36;438574;1257;139957;-75
2023/12/04 01:07:14;;;;;;;14.40;11.30;;;;;;;-4.20;100.00;99976.98;438507;1258;139983;-76
2023/12/04 01:17:20;;;;;;;14.00;12.30;;;;;;;-4.34;100.00;99985.66;438525;1258;139404;-76
2023/12/04 01:27:27;;;;;;;13.60;12.00;;;;;;;-4.42;100.00;99987.33;438367;1257;139468;-75
2023/12/04 01:37:33;;;;;;;15.80;12.50;;;;;;;-4.52;100.00;99980.13;438531;1257;139607;-75
2023/12/04 01:47:39;;;;;;;15.50;12.60;;;;;;;-4.60;100.00;99980.09;438498;1257;139511;-76
2023/12/04 01:57:47;;;;;;;17.20;13.20;;;;;;;-4.62;100.00;99987.25;439598;1258;139594;-76
2023/12/04 02:07:54;;;;;;;18.10;13.90;;;;;;;-4.64;100.00;99991.69;439647;1257;139582;-75
2023/12/04 02:18:00;;;;;;;17.80;14.40;;;;;;;-4.70;100.00;99991.83;438787;1258;139734;-75
2023/12/04 02:28:11;;;;;;;20.80;15.30;;;;;;;-4.74;100.00;99981.56;438535;1258;139896;-75
2023/12/04 02:38:18;;;;;;;19.10;14.90;;;;;;;-4.83;100.00;99983.58;438257;1257;140889;-74
2023/12/04 02:48:24;;;;;;;22.50;17.40;;;;;;;-4.85;100.00;99985.60;438482;1257;143276;-75
2023/12/04 02:58:33;;;;;;;22.00;17.30;;;;;;;-4.91;100.00;99989.33;438429;1258;140304;-77
2023/12/04 03:08:40;;;;;;;24.20;16.40;;;;;;;-4.98;100.00;100000.90;438557;1258;141259;-75
2023/12/04 03:18:46;;;;;;;22.20;16.80;;;;;;;-4.98;100.00;100009.09;438634;1258;139757;-75
2023/12/04 03:28:53;;;;;;;22.30;16.10;;;;;;;-4.98;100.00;100014.39;438480;1258;139267;-75
2023/12/04 03:38:59;;;;;;;18.70;14.70;;;;;;;-5.03;100.00;100017.60;438386;1260;139592;-75
2023/12/04 03:49:06;;;;;;;19.40;14.10;;;;;;;-5.05;100.00;100019.80;438548;1258;139671;-75
2023/12/04 03:59:12;;;;;;;20.50;14.70;;;;;;;-5.09;100.00;100027.48;438671;1258;139657;-75
2023/12/04 04:09:19;;;;;;;23.50;17.60;;;;;;;-5.09;100.00;100032.08;438391;1258;140223;-75
2023/12/04 04:19:26;;;;;;;26.10;19.60;;;;;;;-5.10;100.00;100024.23;438406;1258;140073;-76
2023/12/04 04:29:32;;;;;;;22.20;15.70;;;;;;;-5.09;100.00;100022.00;438667;1258;139259;-75
2023/12/04 04:39:40;;;;;;;19.60;17.30;;;;;;;-5.11;100.00;100017.38;438472;1260;140110;-75
2023/12/04 04:49:46;;;;;;;23.30;15.60;;;;;;;-5.08;100.00;100015.36;439570;1257;139753;-75
2023/12/04 04:59:52;;;;;;;25.00;17.30;;;;;;;-5.07;100.00;100015.36;439068;1260;140415;-74
2023/12/04 05:09:58;;;;;;;22.70;16.20;;;;;;;-5.09;100.00;100009.88;438514;1258;139697;-74
2023/12/04 05:20:07;;;;;;;21.40;15.50;;;;;;;-5.11;100.00;100015.49;438599;1259;140998;-72
2023/12/04 05:30:14;;;;;;;27.40;18.90;;;;;;;-5.13;100.00;100010.52;438568;1258;139335;-74
2023/12/04 05:40:20;;;;;;;25.70;19.40;;;;;;;-5.17;100.00;100009.30;438375;1257;139543;-75
2023/12/04 05:50:27;;;;;;;23.50;16.00;;;;;;;-5.18;100.00;100016.64;438239;1259;140319;-74
2023/12/04 06:00:33;;;;;;;22.80;17.70;;;;;;;-5.21;100.00;100022.42;438552;1258;139802;-74
2023/12/04 06:10:39;;;;;;;23.90;18.40;;;;;;;-5.21;100.00;100018.16;438325;1259;140606;-75
2023/12/04 06:20:45;;;;;;;21.80;15.70;;;;;;;-5.18;100.00;100012.02;438770;1260;140850;-75
2023/12/04 06:30:53;;;;;;;23.20;16.60;;;;;;;-5.19;100.00;100021.75;434957;1259;140742;-68
2023/12/04 06:41:00;;;;;;;23.80;17.80;;;;;;;-5.21;100.00;100026.17;437287;1260;140173;-68
2023/12/04 06:51:08;;;;;;;33.80;23.70;;;;;;;-5.22;100.00;100027.20;433528;1260;143052;-68
2023/12/04 07:01:14;;;;;;;29.50;21.30;;;;;;;-5.17;100.00;100033.73;433260;1258;142039;-68
2023/12/04 07:11:21;;;;;;;24.40;18.30;;;;;;;-5.04;100.00;100035.53;432053;1258;141335;-68
2023/12/04 07:21:27;;;;;;;21.60;17.70;;;;;;;-4.91;100.00;100042.95;434351;1260;140442;-66
2023/12/04 07:31:34;;;;;;;23.40;17.80;;;;;;;-4.78;100.00;100040.30;433841;1257;140453;-64
2023/12/04 07:41:40;;;;;;;26.50;21.10;;;;;;;-4.62;100.00;100035.09;433720;1261;139597;-76
2023/12/04 07:51:46;;;;;;;31.20;21.50;;;;;;;-4.45;100.00;100041.84;433249;1260;140764;-72
2023/12/04 08:01:53;;;;;;;29.30;20.50;;;;;;;-4.22;100.00;100035.44;432709;1257;141131;-68
2023/12/04 08:12:00;;;;;;;26.10;19.30;;;;;;;-3.97;100.00;100039.27;433980;1260;139301;-67
2023/12/04 08:22:06;;;;;;;33.00;21.60;;;;;;;-3.89;100.00;100050.26;435521;1260;139662;-67
2023/12/04 08:32:13;;;;;;;23.90;17.10;;;;;;;-3.74;100.00;100055.76;438467;1259;140223;-73
2023/12/04 08:42:19;;;;;;;25.40;17.80;;;;;;;-3.55;100.00;100068.27;435160;1260;140005;-73
2023/12/04 08:52:29;;;;;;;26.40;17.60;;;;;;;-3.35;100.00;100070.20;438976;1261;139963;-76
2023/12/04 09:02:35;;;;;;;26.60;17.90;;;;;;;-3.25;100.00;100075.85;437255;1260;141115;-64
2023/12/04 09:12:49;;;;;;;27.50;19.60;;;;;;;-2.96;100.00;100070.18;432358;1258;140098;-71
2023/12/04 09:22:53;;;;;;;;;;;;;;;-2.72;100.00;100067.93;435583;1261;140371;-67
2023/12/04 09:33:09;;;;;;;28.30;19.90;;;;;;;-2.63;100.00;100070.48;434672;1260;125829;-70
2023/12/04 09:43:14;;;;;;;;;;;;;;;-2.75;100.00;100065.02;433328;1260;139942;-69
2023/12/04 09:53:22;;;;;;;25.40;17.30;;;;;;;-3.11;100.00;100062.15;431998;1260;127477;-67
2023/12/04 10:03:29;;;;;;;20.60;15.40;;;;;;;-3.03;100.00;100054.09;431849;1261;141560;-66
2023/12/04 10:13:36;;;;;;;25.00;17.70;;;;;;;-2.68;100.00;100050.28;439976;1257;141403;-66
2023/12/04 10:24:01;;;;;;;;;;;;;;;-2.33;100.00;100044.69;435346;1258;140380;-72
2023/12/04 10:34:09;;;;;;;19.80;14.80;;;;;;;-2.11;100.00;100035.67;433014;1260;126383;-64
2023/12/04 10:44:19;;;;;;;27.30;18.50;;;;;;;-2.16;100.00;100033.63;449536;1257;139877;-71
2023/12/04 10:54:26;;;;;;;20.10;14.60;;;;;;;-2.05;100.00;100028.95;446905;1257;139868;-67
2023/12/04 11:04:36;;;;;;;20.30;15.20;;;;;;;-2.08;100.00;100018.84;438261;1257;141847;-67
2023/12/04 11:14:47;;;;;;;20.80;15.40;;;;;;;-2.11;100.00;100017.48;434155;1260;139756;-67
2023/12/04 11:24:55;;;;;;;22.40;16.00;;;;;;;-2.17;100.00;100015.80;444679;1257;140898;-67
2023/12/04 11:35:04;;;;;;;21.00;15.00;;;;;;;-2.07;100.00;100008.70;433855;1258;140229;-66
2023/12/04 11:45:19;;;;;;;19.40;14.40;;;;;;;-1.98;100.00;99998.02;432817;1260;141622;-68
2023/12/04 11:55:27;;;;;;;24.20;15.90;;;;;;;-1.97;100.00;99983.77;432615;1258;140007;-64
2023/12/04 12:05:35;;;;;;;24.00;17.90;;;;;;;-1.90;100.00;99976.36;434834;1260;139940;-71
2023/12/04 12:15:41;;;;;;;22.70;16.30;;;;;;;-1.85;100.00;99961.90;431688;1260;140844;-63
2023/12/04 12:25:49;;;;;;;22.30;17.60;;;;;;;-2.06;100.00;99961.87;434975;1260;139828;-68
2023/12/04 12:35:57;;;;;;;17.90;13.80;;;;;;;-1.99;100.00;99949.64;432121;1258;139482;-68
2023/12/04 12:46:10;;;;;;;22.20;14.30;;;;;;;-1.78;100.00;99939.89;439047;1254;140507;-65
2023/12/04 12:56:17;;;;;;;22.90;15.30;;;;;;;-1.91;100.00;99934.83;446023;1254;139529;-69
2023/12/04 13:06:23;;;;;;;17.10;11.90;;;;;;;-2.16;100.00;99919.73;434585;1257;185174;-67
2023/12/04 13:16:30;;;;;;;20.70;16.50;;;;;;;-2.42;100.00;99920.05;437800;1255;140399;-68
2023/12/04 13:26:34;;;;;;;;;;;;;;;-2.63;100.00;99908.34;438285;1257;139732;-67
2023/12/04 13:36:41;;;;;;;26.80;18.50;;;;;;;-2.87;100.00;99899.52;433150;1255;128603;-78
2023/12/04 13:46:49;;;;;;;28.40;18.10;;;;;;;-3.14;100.00;99899.45;433022;1257;139585;-76
2023/12/04 13:56:56;;;;;;;29.00;20.10;;;;;;;-3.44;100.00;99891.47;434224;1255;140151;-67
2023/12/04 14:07:03;;;;;;;33.00;24.40;;;;;;;-3.76;100.00;99885.69;433224;1256;141091;-71
2023/12/04 14:17:11;;;;;;;36.10;25.80;;;;;;;-4.10;100.00;99876.96;433889;1254;139804;-78
2023/12/04 14:27:18;;;;;;;40.10;28.90;;;;;;;-4.42;100.00;99879.48;434039;1254;140560;-71
2023/12/04 14:37:24;;;;;;;32.90;24.10;;;;;;;-4.69;100.00;99884.20;438404;1257;140168;-60
2023/12/04 14:47:31;;;;;;;29.50;23.00;;;;;;;-4.96;100.00;99878.98;438439;1254;140503;-60
2023/12/04 14:58:05;;;;;;;32.30;25.10;;;;;;;-5.23;100.00;99879.55;432728;1255;140622;-72
2023/12/04 15:18:39;;;;;;;42.40;30.30;;;;;;;-5.65;100.00;99875.72;433255;1257;139988;-70
2023/12/04 15:28:45;;;;;;;47.70;34.90;;;;;;;-5.84;100.00;99877.97;433240;1257;195081;-67
2023/12/04 15:38:54;;;;;;;42.90;33.50;;;;;;;-6.07;100.00;99877.30;433677;1257;139689;-63
2023/12/04 15:49:01;;;;;;;50.00;38.60;;;;;;;-6.26;100.00;99878.51;436692;1253;139607;-70
2023/12/04 15:59:07;;;;;;;58.70;42.30;;;;;;;-6.46;100.00;99879.17;432798;1257;140422;-69
2023/12/04 16:09:14;;;;;;;58.40;42.30;;;;;;;-6.68;100.00;99868.23;432906;1257;142870;-66
2023/12/04 16:19:20;;;;;;;62.20;43.10;;;;;;;-6.86;100.00;99861.55;438722;1254;140887;-70
2023/12/04 16:29:33;;;;;;;64.80;44.90;;;;;;;-6.96;100.00;99860.23;435800;1255;140188;-70
2023/12/04 16:39:39;;;;;;;70.00;46.10;;;;;;;-7.07;100.00;99857.21;433116;1255;140391;-63
2023/12/04 16:49:46;;;;;;;67.30;47.40;;;;;;;-7.18;100.00;99856.40;434429;1257;140483;-63
2023/12/04 16:59:53;;;;;;;71.10;50.80;;;;;;;-7.29;100.00;99848.77;434418;1254;142145;-64
2023/12/04 17:10:02;;;;;;;72.00;50.60;;;;;;;-7.41;100.00;99838.77;433001;1257;140624;-63
2023/12/04 17:20:10;;;;;;;78.20;52.30;;;;;;;-7.57;100.00;99826.64;432981;1257;140691;-63
2023/12/04 17:30:17;;;;;;;83.00;57.80;;;;;;;-7.64;100.00;99817.88;436162;1255;140180;-62
2023/12/04 17:40:23;;;;;;;76.90;55.30;;;;;;;-7.67;100.00;99816.14;433278;1255;140090;-64
2023/12/04 17:50:30;;;;;;;75.50;52.70;;;;;;;-7.77;100.00;99817.02;434017;1254;140818;-64
2023/12/04 18:00:36;;;;;;;75.10;51.50;;;;;;;-7.84;100.00;99817.10;433894;1257;140903;-63
2023/12/04 18:10:42;;;;;;;77.70;53.90;;;;;;;-7.93;100.00;99816.79;436588;1254;140124;-64
2023/12/04 18:20:49;;;;;;;73.40;48.40;;;;;;;-7.98;100.00;99809.05;432974;1257;140937;-63
2023/12/04 18:30:57;;;;;;;67.40;48.10;;;;;;;-7.99;100.00;99807.70;434997;1255;140411;-63
2023/12/04 18:41:05;;;;;;;60.70;44.00;;;;;;;-8.04;100.00;99793.01;434307;1257;141171;-63
2023/12/04 18:51:15;;;;;;;61.10;43.20;;;;;;;-8.05;100.00;99783.48;435479;1257;140900;-64
2023/12/04 19:01:22;;;;;;;73.80;50.50;;;;;;;-8.07;100.00;99783.45;435215;1257;140244;-62
2023/12/04 19:11:30;;;;;;;65.70;46.50;;;;;;;-8.14;100.00;99784.02;436085;1254;140154;-63
2023/12/04 19:21:36;;;;;;;67.90;47.40;;;;;;;-8.21;100.00;99782.91;437740;1255;139995;-63
2023/12/04 19:31:42;;;;;;;65.40;43.70;;;;;;;-8.20;100.00;99775.42;434909;1257;141084;-64
2023/12/04 19:41:49;;;;;;;64.90;46.10;;;;;;;-8.19;100.00;99760.52;437147;1254;139820;-64
2023/12/04 19:51:55;;;;;;;67.10;45.90;;;;;;;-8.17;100.00;99760.03;433894;1257;140686;-63
2023/12/04 20:02:02;;;;;;;62.20;45.20;;;;;;;-8.14;100.00;99760.08;433038;1257;140186;-64
2023/12/04 20:12:08;;;;;;;59.40;45.30;;;;;;;-8.16;100.00;99752.05;434065;1258;140306;-63
2023/12/04 20:22:16;;;;;;;60.50;40.10;;;;;;;-8.19;100.00;99735.70;433900;1255;141056;-65
2023/12/04 20:32:22;;;;;;;55.50;39.70;;;;;;;-8.14;100.00;99733.05;433798;1254;140308;-62
2023/12/04 20:42:29;;;;;;;50.70;35.50;;;;;;;-8.09;100.00;99719.20;435412;1254;139832;-64
2023/12/04 20:52:35;;;;;;;48.40;35.50;;;;;;;-7.96;100.00;99710.37;433440;1255;140120;-63
2023/12/04 21:02:42;;;;;;;45.00;33.20;;;;;;;-7.83;100.00;99702.39;432808;1255;141425;-64
2023/12/04 21:12:48;;;;;;;41.40;30.70;;;;;;;-7.69;100.00;99701.52;432143;1255;140962;-64
2023/12/04 21:22:54;;;;;;;39.40;31.20;;;;;;;-7.59;100.00;99703.17;450552;1254;140172;-63
2023/12/04 21:33:01;;;;;;;39.10;29.30;;;;;;;-7.49;100.00;99704.65;433349;1254;140308;-62
2023/12/04 21:43:07;;;;;;;46.70;33.40;;;;;;;-7.43;100.00;99704.55;432298;1256;140338;-63
2023/12/04 21:53:14;;;;;;;48.50;32.90;;;;;;;-7.36;100.00;99702.07;432394;1256;140474;-63
2023/12/04 22:03:20;;;;;;;46.20;32.70;;;;;;;-7.30;100.00;99687.16;432210;1254;140879;-64
2023/12/04 22:13:27;;;;;;;46.70;32.50;;;;;;;-7.25;100.00;99671.22;440127;1255;141479;-64
2023/12/04 22:23:34;;;;;;;40.30;30.80;;;;;;;-7.21;100.00;99651.36;433415;1258;141191;-63
2023/12/04 22:33:40;;;;;;;51.10;33.40;;;;;;;-7.20;100.00;99638.10;433115;1255;140768;-62
2023/12/04 22:43:46;;;;;;;48.70;32.90;;;;;;;-7.16;100.00;99615.33;442090;1254;140258;-63
2023/12/04 22:53:52;;;;;;;42.30;31.90;;;;;;;-7.09;100.00;99597.51;444667;1254;140701;-63
2023/12/04 23:03:58;;;;;;;44.70;30.50;;;;;;;-7.03;100.00;99590.59;432986;1255;141142;-64
2023/12/04 23:14:05;;;;;;;43.90;29.90;;;;;;;-6.97;100.00;99575.31;432541;1258;141428;-63
2023/12/04 23:24:11;;;;;;;45.40;31.40;;;;;;;-6.92;100.00;99557.63;432242;1256;140535;-64
2023/12/04 23:34:18;;;;;;;45.30;31.40;;;;;;;-6.93;100.00;99538.73;433007;1256;140640;-63
2023/12/04 23:44:24;;;;;;;42.20;31.30;;;;;;;-6.96;100.00;99542.29;449874;1254;141409;-64
2023/12/04 23:54:30;;;;;;;46.40;33.20;;;;;;;-7.02;100.00;99541.23;442648;1254;140258;-63
